createdAt,value
2022-09-12T00:00:25.253Z,15.5
2022-09-12T00:01:24.252Z,15.47999954
2022-09-12T00:03:21.477Z,15.44999981
2022-09-12T00:04:16.692Z,15.42000008
2022-09-12T00:05:16.600Z,15.40999985
2022-09-12T00:06:11.208Z,15.39000034
2022-09-12T00:07:14.284Z,15.40999985
2022-09-12T00:08:12.685Z,15.40999985
2022-09-12T00:09:16.951Z,15.36999989
2022-09-12T00:10:08.459Z,15.36999989
2022-09-12T00:11:13.840Z,15.35999966
2022-09-12T00:12:09.073Z,15.36999989
2022-09-12T00:13:52.917Z,15.46000004
2022-09-12T00:14:36.172Z,15.5
2022-09-12T00:15:39.061Z,15.52999973
2022-09-12T00:16:43.770Z,15.51000023
2022-09-12T00:17:40.080Z,15.5
2022-09-12T00:18:39.269Z,15.46000004
2022-09-12T00:19:34.696Z,15.43000031
2022-09-12T00:20:34.086Z,15.40999985
2022-09-12T00:21:28.378Z,15.38000011
2022-09-12T00:22:30.679Z,15.38000011
2022-09-12T00:23:26.097Z,15.35999966
2022-09-12T00:24:26.678Z,15.34000015
2022-09-12T00:25:26.637Z,15.31999969
2022-09-12T00:26:25.985Z,15.31000042
2022-09-12T00:28:20.016Z,15.28999996
2022-09-12T00:29:16.322Z,15.26000023
2022-09-12T00:30:17.425Z,15.25
2022-09-12T00:31:11.835Z,15.22999954
2022-09-12T00:32:11.833Z,15.22999954
2022-09-12T00:34:14.914Z,15.21000004
2022-09-12T00:35:07.694Z,15.21000004
2022-09-12T00:36:09.052Z,15.19999981
2022-09-12T00:37:05.075Z,15.19999981
2022-09-12T00:39:08.283Z,15.19999981
2022-09-12T00:40:03.983Z,15.18999958
2022-09-12T00:41:03.124Z,15.18000031
2022-09-12T00:42:05.075Z,15.18000031
2022-09-12T00:43:09.381Z,15.18000031
2022-09-12T00:44:05.023Z,15.17000008
2022-09-12T00:45:07.078Z,15.15999985
2022-09-12T00:46:01.607Z,15.14999962
2022-09-12T00:47:01.789Z,15.14999962
2022-09-12T00:49:05.195Z,15.13000011
2022-09-12T00:49:57.743Z,15.11999989
2022-09-12T00:51:00.788Z,15.13000011
2022-09-12T00:52:00.423Z,15.10999966
2022-09-12T00:53:46.934Z,15.18000031
2022-09-12T00:54:26.281Z,15.22999954
2022-09-12T00:55:24.324Z,15.28999996
2022-09-12T00:56:21.871Z,15.27999973
2022-09-12T00:57:21.235Z,15.27999973
2022-09-12T00:58:21.233Z,15.23999977
2022-09-12T00:59:22.289Z,15.19999981
2022-09-12T01:00:17.842Z,15.17000008
2022-09-12T01:01:27.325Z,15.15999985
2022-09-12T01:02:26.189Z,15.15999985
2022-09-12T01:03:21.290Z,15.14000034
2022-09-12T01:04:28.556Z,15.13000011
2022-09-12T01:05:24.594Z,15.10999966
2022-09-12T01:06:22.804Z,15.10000038
2022-09-12T01:07:22.002Z,15.10999966
2022-09-12T01:08:17.448Z,15.09000015
2022-09-12T01:09:20.102Z,15.06999969
2022-09-12T01:10:15.345Z,15.03999996
2022-09-12T01:11:19.057Z,15.02999973
2022-09-12T01:12:13.251Z,15.03999996
2022-09-12T01:14:08.519Z,15.06000042
2022-09-12T01:15:08.530Z,15.05000019
2022-09-12T01:16:07.502Z,15.02999973
2022-09-12T01:17:07.330Z,15.02000046
2022-09-12T01:19:00.148Z,15
2022-09-12T01:20:03.513Z,15
2022-09-12T01:20:58.836Z,14.98999977
2022-09-12T01:22:01.031Z,14.98999977
2022-09-12T01:23:56.343Z,14.98999977
2022-09-12T01:24:50.804Z,14.97999954
2022-09-12T01:25:51.891Z,14.97000027
2022-09-12T01:26:47.009Z,14.96000004
2022-09-12T01:27:45.957Z,14.97000027
2022-09-12T01:28:47.711Z,14.93999958
2022-09-12T01:29:46.712Z,14.93999958
2022-09-12T01:30:42.226Z,14.93000031
2022-09-12T01:31:39.290Z,14.93000031
2022-09-12T01:33:34.000Z,14.93000031
2022-09-12T01:35:30.548Z,15.02999973
2022-09-12T01:36:05.140Z,15.10000038
2022-09-12T01:37:03.117Z,15.18999958
2022-09-12T01:38:04.251Z,15.19999981
2022-09-12T01:39:02.155Z,15.18000031
2022-09-12T01:40:01.152Z,15.14000034
2022-09-12T01:40:59.183Z,15.10999966
2022-09-12T01:42:08.163Z,15.06999969
2022-09-12T01:44:06.363Z,15.05000019
2022-09-12T01:45:04.870Z,15.02999973
2022-09-12T01:46:04.954Z,15
2022-09-12T01:47:02.991Z,14.97999954
2022-09-12T01:48:03.724Z,14.97000027
2022-09-12T01:49:10.703Z,14.97000027
2022-09-12T01:50:10.748Z,14.96000004
2022-09-12T01:51:09.492Z,14.96000004
2022-09-12T01:52:08.160Z,14.94999981
2022-09-12T01:54:06.868Z,14.94999981
2022-09-12T01:55:09.064Z,14.93999958
2022-09-12T01:56:08.247Z,14.94999981
2022-09-12T01:57:06.441Z,14.97000027
2022-09-12T01:58:10.479Z,14.97999954
2022-09-12T01:59:08.473Z,14.97000027
2022-09-12T02:00:08.402Z,14.97000027
2022-09-12T02:01:06.846Z,14.94999981
2022-09-12T02:02:12.283Z,14.94999981
2022-09-12T02:03:06.643Z,14.96000004
2022-09-12T02:04:05.460Z,14.96000004
2022-09-12T02:05:01.810Z,14.96000004
2022-09-12T02:06:04.268Z,14.94999981
2022-09-12T02:06:59.784Z,14.96000004
2022-09-12T02:08:54.833Z,14.97000027
2022-09-12T02:09:52.756Z,14.96000004
2022-09-12T02:10:58.381Z,14.93999958
2022-09-12T02:11:52.650Z,14.93000031
2022-09-12T02:12:55.191Z,14.93000031
2022-09-12T02:13:56.121Z,14.89999962
2022-09-12T02:14:48.002Z,14.88000011
2022-09-12T02:15:51.023Z,14.86999989
2022-09-12T02:16:44.881Z,14.86999989
2022-09-12T02:19:09.122Z,14.86999989
2022-09-12T02:19:57.537Z,14.89000034
2022-09-12T02:20:58.201Z,14.92000008
2022-09-12T02:21:59.028Z,14.89999962
2022-09-12T02:22:58.998Z,14.89999962
2022-09-12T02:24:01.233Z,14.88000011
2022-09-12T02:25:03.780Z,14.85999966
2022-09-12T02:26:01.939Z,14.84000015
2022-09-12T02:27:02.435Z,14.82999992
2022-09-12T02:29:03.462Z,14.82999992
2022-09-12T02:30:01.802Z,14.81999969
2022-09-12T02:31:04.357Z,14.81000042
2022-09-12T02:31:57.620Z,14.81999969
2022-09-12T02:32:59.795Z,14.85000038
2022-09-12T02:33:56.163Z,14.84000015
2022-09-12T02:35:00.150Z,14.84000015
2022-09-12T02:35:54.023Z,14.81999969
2022-09-12T02:36:51.126Z,14.82999992
2022-09-12T02:37:54.343Z,14.85000038
2022-09-12T02:38:51.812Z,14.81999969
2022-09-12T02:39:51.676Z,14.81000042
2022-09-12T02:40:46.704Z,14.80000019
2022-09-12T02:41:48.882Z,14.78999996
2022-09-12T02:42:44.019Z,14.81000042
2022-09-12T02:43:44.600Z,14.80000019
2022-09-12T02:44:40.904Z,14.78999996
2022-09-12T02:45:47.774Z,14.77999973
2022-09-12T02:46:42.031Z,14.77000046
2022-09-12T02:48:41.711Z,14.78999996
2022-09-12T02:49:43.442Z,14.78999996
2022-09-12T02:50:36.584Z,14.80000019
2022-09-12T02:51:39.001Z,14.80000019
2022-09-12T02:53:36.146Z,14.81000042
2022-09-12T02:54:29.272Z,14.78999996
2022-09-12T02:55:34.971Z,14.78999996
2022-09-12T02:56:37.097Z,14.76000023
2022-09-12T02:57:29.762Z,14.77999973
2022-09-12T02:58:34.779Z,14.77000046
2022-09-12T02:59:29.114Z,14.77000046
2022-09-12T03:01:14.181Z,14.81999969
2022-09-12T03:01:59.994Z,14.88000011
2022-09-12T03:04:00.785Z,14.89999962
2022-09-12T03:04:56.146Z,14.85999966
2022-09-12T03:05:56.641Z,14.81999969
2022-09-12T03:06:56.812Z,14.78999996
2022-09-12T03:07:57.785Z,14.78999996
2022-09-12T03:08:52.429Z,14.76000023
2022-09-12T03:09:54.443Z,14.72000027
2022-09-12T03:10:49.653Z,14.71000004
2022-09-12T03:11:50.918Z,14.69999981
2022-09-12T03:12:46.063Z,14.69999981
2022-09-12T03:13:48.135Z,14.68000031
2022-09-12T03:14:42.264Z,14.67000008
2022-09-12T03:15:41.257Z,14.65999985
2022-09-12T03:16:35.882Z,14.67000008
2022-09-12T03:17:36.153Z,14.67000008
2022-09-12T03:18:36.474Z,14.64999962
2022-09-12T03:19:28.780Z,14.61999989
2022-09-12T03:20:33.863Z,14.61999989
2022-09-12T03:21:33.408Z,14.60000038
2022-09-12T03:23:28.000Z,14.57999992
2022-09-12T03:24:23.170Z,14.56999969
2022-09-12T03:25:34.097Z,14.55000019
2022-09-12T03:26:29.425Z,14.52999973
2022-09-12T03:28:33.390Z,14.57999992
2022-09-12T03:28:43.592Z,14.56999969
2022-09-12T03:29:36.309Z,14.60000038
2022-09-12T03:30:34.683Z,14.60999966
2022-09-12T03:31:34.636Z,14.60000038
2022-09-12T03:33:14.413Z,14.60999966
2022-09-12T03:33:41.697Z,14.63000011
2022-09-12T03:34:41.133Z,14.71000004
2022-09-12T03:35:40.935Z,14.72000027
2022-09-12T03:36:47.047Z,14.71000004
2022-09-12T03:38:45.116Z,14.67000008
2022-09-12T03:39:48.923Z,14.64000034
2022-09-12T03:40:44.531Z,14.63000011
2022-09-12T03:41:44.361Z,14.61999989
2022-09-12T03:42:40.622Z,14.63000011
2022-09-12T03:43:41.305Z,14.60999966
2022-09-12T03:44:36.602Z,14.60999966
2022-09-12T03:45:45.099Z,14.59000015
2022-09-12T03:46:45.129Z,14.57999992
2022-09-12T03:47:43.650Z,14.57999992
2022-09-12T03:48:47.059Z,14.56000042
2022-09-12T03:49:42.098Z,14.56000042
2022-09-12T03:50:37.558Z,14.56000042
2022-09-12T03:51:39.740Z,14.56000042
2022-09-12T03:52:45.304Z,14.57999992
2022-09-12T03:53:45.063Z,14.56000042
2022-09-12T03:54:50.223Z,14.53999996
2022-09-12T03:55:52.991Z,14.53999996
2022-09-12T03:56:52.659Z,14.53999996
2022-09-12T03:58:50.479Z,14.53999996
2022-09-12T03:59:52.392Z,14.52999973
2022-09-12T04:00:47.775Z,14.52999973
2022-09-12T04:01:43.217Z,14.53999996
2022-09-12T04:03:42.725Z,14.53999996
2022-09-12T04:04:42.187Z,14.52999973
2022-09-12T04:06:28.350Z,14.57999992
2022-09-12T04:07:12.078Z,14.61999989
2022-09-12T04:09:19.358Z,14.65999985
2022-09-12T04:10:16.688Z,14.64000034
2022-09-12T04:11:20.904Z,14.61999989
2022-09-12T04:12:17.439Z,14.61999989
2022-09-12T04:14:32.500Z,14.57999992
2022-09-12T04:15:31.534Z,14.55000019
2022-09-12T04:16:34.556Z,14.53999996
2022-09-12T04:17:33.685Z,14.56000042
2022-09-12T04:18:38.739Z,14.57999992
2022-09-12T04:19:35.919Z,14.56999969
2022-09-12T04:20:37.753Z,14.56999969
2022-09-12T04:21:34.676Z,14.55000019
2022-09-12T04:23:42.648Z,14.56999969
2022-09-12T04:24:37.046Z,14.56999969
2022-09-12T04:25:43.283Z,14.56999969
2022-09-12T04:26:40.428Z,14.56999969
2022-09-12T04:28:40.045Z,14.57999992
2022-09-12T04:29:44.379Z,14.55000019
2022-09-12T04:30:38.897Z,14.56000042
2022-09-12T04:31:42.981Z,14.55000019
2022-09-12T04:33:46.269Z,14.59000015
2022-09-12T04:34:44.401Z,14.60000038
2022-09-12T04:35:44.045Z,14.57999992
2022-09-12T04:36:44.080Z,14.57999992
2022-09-12T04:41:03.968Z,15.18000031
2022-09-12T04:41:32.883Z,15.52999973
2022-09-12T04:42:31.688Z,15.64000034
2022-09-12T04:43:31.496Z,15.60000038
2022-09-12T04:44:26.739Z,15.51000023
2022-09-12T04:45:29.075Z,15.39000034
2022-09-12T04:46:28.554Z,15.27999973
2022-09-12T04:48:36.133Z,15.10999966
2022-09-12T04:49:31.368Z,15.06000042
2022-09-12T04:50:33.714Z,15
2022-09-12T04:51:26.300Z,14.94999981
2022-09-12T04:52:30.909Z,14.90999985
2022-09-12T04:53:26.122Z,14.88000011
2022-09-12T04:54:25.011Z,14.84000015
2022-09-12T04:55:22.059Z,14.78999996
2022-09-12T04:56:22.455Z,14.77000046
2022-09-12T04:57:18.750Z,14.72999954
2022-09-12T04:59:15.217Z,14.67000008
2022-09-12T05:00:19.422Z,14.63000011
2022-09-12T05:01:15.859Z,14.61999989
2022-09-12T05:02:19.798Z,14.60000038
2022-09-12T05:04:19.807Z,14.57999992
2022-09-12T05:05:13.259Z,14.57999992
2022-09-12T05:06:12.417Z,14.56000042
2022-09-12T05:07:08.742Z,14.55000019
2022-09-12T05:09:03.885Z,14.52999973
2022-09-12T05:10:06.317Z,14.5
2022-09-12T05:11:01.615Z,14.48999977
2022-09-12T05:12:04.621Z,14.48999977
2022-09-12T05:12:59.785Z,14.5
2022-09-12T05:14:06.027Z,14.52000046
2022-09-12T05:15:09.232Z,14.53999996
2022-09-12T05:16:09.471Z,14.52999973
2022-09-12T05:17:08.904Z,14.52000046
2022-09-12T05:19:07.228Z,14.48999977
2022-09-12T05:19:59.798Z,14.47999954
2022-09-12T05:21:03.561Z,14.48999977
2022-09-12T05:22:00.973Z,14.47000027
2022-09-12T05:23:03.466Z,14.48999977
2022-09-12T05:24:35.660Z,14.5
2022-09-12T05:25:16.870Z,14.52999973
2022-09-12T05:26:18.647Z,14.53999996
2022-09-12T05:27:23.671Z,14.55000019
2022-09-12T05:28:21.823Z,14.53999996
2022-09-12T05:29:18.255Z,14.51000023
2022-09-12T05:30:17.607Z,14.5
2022-09-12T05:31:12.346Z,14.47999954
2022-09-12T05:32:12.569Z,14.47999954
2022-09-12T05:34:14.621Z,14.47000027
2022-09-12T05:35:09.750Z,14.47000027
2022-09-12T05:36:11.792Z,14.47000027
2022-09-12T05:37:05.867Z,14.47000027
2022-09-12T05:38:05.148Z,14.51000023
2022-09-12T05:39:00.501Z,14.5
2022-09-12T05:40:03.080Z,14.51000023
2022-09-12T05:41:01.358Z,14.5
2022-09-12T05:42:06.530Z,14.5
2022-09-12T05:44:01.700Z,14.53999996
2022-09-12T05:44:55.663Z,14.52999973
2022-09-12T05:45:53.917Z,14.53999996
2022-09-12T05:46:49.455Z,14.53999996
2022-09-12T05:47:52.004Z,14.56999969
2022-09-12T05:48:44.878Z,14.56999969
2022-09-12T05:49:47.199Z,14.57999992
2022-09-12T05:50:40.660Z,14.60000038
2022-09-12T05:51:43.173Z,14.60000038
2022-09-12T05:52:35.698Z,14.61999989
2022-09-12T05:53:37.613Z,14.61999989
2022-09-12T05:54:31.925Z,14.64000034
2022-09-12T05:55:30.310Z,14.64000034
2022-09-12T05:56:26.545Z,14.64999962
2022-09-12T05:58:22.701Z,14.68000031
2022-09-12T05:59:25.927Z,14.68999958
2022-09-12T06:00:20.214Z,14.69999981
2022-09-12T06:01:24.435Z,14.72000027
2022-09-12T06:02:17.333Z,14.76000023
2022-09-12T06:03:19.715Z,14.77999973
2022-09-12T06:04:13.937Z,14.77999973
2022-09-12T06:05:11.601Z,14.80000019
2022-09-12T06:06:11.910Z,14.80000019
2022-09-12T06:07:09.051Z,14.80000019
2022-09-12T06:08:11.371Z,14.81999969
2022-09-12T06:09:03.883Z,14.82999992
2022-09-12T06:10:04.754Z,14.84000015
2022-09-12T06:11:02.284Z,14.85000038
2022-09-12T06:11:59.506Z,14.88000011
2022-09-12T06:12:54.859Z,14.90999985
2022-09-12T06:13:54.955Z,14.93000031
2022-09-12T06:14:50.349Z,14.93000031
2022-09-12T06:16:38.779Z,15.02999973
2022-09-12T06:17:19.218Z,15.09000015
2022-09-12T06:19:15.953Z,15.17000008
2022-09-12T06:20:15.879Z,15.15999985
2022-09-12T06:21:11.422Z,15.15999985
2022-09-12T06:22:08.404Z,15.14999962
2022-09-12T06:24:02.171Z,15.14999962
2022-09-12T06:25:03.420Z,15.15999985
2022-09-12T06:25:58.789Z,15.17000008
2022-09-12T06:26:57.244Z,15.18000031
2022-09-12T06:28:38.897Z,15.26000023
2022-09-12T06:29:19.248Z,15.34000015
2022-09-12T06:30:17.309Z,15.38000011
2022-09-12T06:31:14.343Z,15.39999962
2022-09-12T06:32:15.050Z,15.39000034
2022-09-12T06:33:09.872Z,15.39000034
2022-09-12T06:34:12.879Z,15.39000034
2022-09-12T06:35:10.145Z,15.39000034
2022-09-12T06:36:08.943Z,15.40999985
2022-09-12T06:36:12.621Z,15.40999985
2022-09-12T06:37:07.164Z,15.42000008
2022-09-12T06:38:02.484Z,15.46000004
2022-09-12T06:39:04.105Z,15.47999954
2022-09-12T06:39:59.686Z,15.47999954
2022-09-12T06:40:59.235Z,15.47999954
2022-09-12T06:41:54.504Z,15.48999977
2022-09-12T06:42:55.472Z,15.5
2022-09-12T06:43:50.201Z,15.5
2022-09-12T06:44:50.916Z,15.52000046
2022-09-12T06:45:46.476Z,15.53999996
2022-09-12T06:46:46.609Z,15.55000019
2022-09-12T06:48:42.063Z,15.60000038
2022-09-12T06:49:40.778Z,15.60000038
2022-09-12T06:50:36.367Z,15.61999989
2022-09-12T06:51:33.569Z,15.63000011
2022-09-12T06:53:38.680Z,15.65999985
2022-09-12T06:54:29.062Z,15.69999981
2022-09-12T06:55:27.694Z,15.75
2022-09-12T06:56:25.513Z,15.80000019
2022-09-12T06:57:20.517Z,15.81999969
2022-09-12T06:58:23.017Z,15.85000038
2022-09-12T06:59:16.262Z,15.85999966
2022-09-12T07:00:18.711Z,15.88000011
2022-09-12T07:01:11.557Z,15.90999985
2022-09-12T07:02:13.898Z,15.93000031
2022-09-12T07:04:09.197Z,15.97999954
2022-09-12T07:05:02.163Z,15.98999977
2022-09-12T07:06:04.604Z,16.01000023
2022-09-12T07:06:57.265Z,16.04000092
2022-09-12T07:08:52.897Z,16.10000038
2022-09-12T07:09:55.961Z,16.12000084
2022-09-12T07:10:55.985Z,16.14999962
2022-09-12T07:12:26.814Z,16.26000023
2022-09-12T07:16:19.676Z,16.97999954
2022-09-12T07:16:58.301Z,16.98999977
2022-09-12T07:17:56.045Z,16.96999931
2022-09-12T07:18:59.736Z,16.93000031
2022-09-12T07:19:56.083Z,16.88999939
2022-09-12T07:20:56.440Z,16.82999992
2022-09-12T07:21:58.556Z,16.79999924
2022-09-12T07:23:56.434Z,16.75
2022-09-12T07:24:52.677Z,16.75
2022-09-12T07:25:52.171Z,16.71999931
2022-09-12T07:26:47.399Z,16.71999931
2022-09-12T07:27:51.048Z,16.70999908
2022-09-12T07:27:51.376Z,16.70999908
2022-09-12T07:28:42.975Z,16.70999908
2022-09-12T07:29:42.981Z,16.71999931
2022-09-12T07:30:39.558Z,16.72999954
2022-09-12T07:31:39.746Z,16.71999931
2022-09-12T07:33:36.465Z,16.70999908
2022-09-12T07:34:32.855Z,16.71999931
2022-09-12T07:35:32.160Z,16.71999931
2022-09-12T07:36:29.540Z,16.73999977
2022-09-12T07:38:26.210Z,16.75
2022-09-12T07:39:27.749Z,16.76000023
2022-09-12T07:40:20.609Z,16.77000046
2022-09-12T07:41:23.354Z,16.79000092
2022-09-12T07:42:16.269Z,16.79999924
2022-09-12T07:43:19.381Z,16.82999992
2022-09-12T07:44:12.588Z,16.82999992
2022-09-12T07:45:14.763Z,16.84000015
2022-09-12T07:46:08.437Z,16.86000061
2022-09-12T07:47:10.834Z,16.86000061
2022-09-12T07:48:03.904Z,16.88999939
2022-09-12T07:49:08.226Z,16.89999962
2022-09-12T07:49:59.558Z,16.90999985
2022-09-12T07:51:00.372Z,16.93000031
2022-09-12T07:51:56.752Z,16.94000053
2022-09-12T07:52:58.008Z,16.94000053
2022-09-12T07:53:53.202Z,16.95000076
2022-09-12T07:54:55.885Z,16.94000053
2022-09-12T07:55:52.289Z,16.95999908
2022-09-12T07:56:54.692Z,16.96999931
2022-09-12T07:57:47.529Z,17
2022-09-12T07:58:50.722Z,17.01000023
2022-09-12T07:59:52.823Z,17.02000046
2022-09-12T07:59:53.156Z,17.02000046
2022-09-12T08:00:47.436Z,17.06999969
2022-09-12T08:01:48.405Z,17.10000038
2022-09-12T08:03:44.271Z,17.14999962
2022-09-12T08:04:45.133Z,17.15999985
2022-09-12T08:05:40.702Z,17.18000031
2022-09-12T08:06:38.882Z,17.20999908
2022-09-12T08:07:36.928Z,17.21999931
2022-09-12T08:08:35.169Z,17.22999954
2022-09-12T08:09:33.026Z,17.25
2022-09-12T08:10:31.159Z,17.26000023
2022-09-12T08:11:29.328Z,17.27000046
2022-09-12T08:12:27.440Z,17.28000069
2022-09-12T08:16:18.433Z,17.62999916
2022-09-12T08:16:58.775Z,17.68000031
2022-09-12T08:18:57.106Z,17.70999908
2022-09-12T08:19:52.524Z,17.70000076
2022-09-12T08:20:52.988Z,17.70000076
2022-09-12T08:21:49.042Z,17.69000053
2022-09-12T08:23:46.418Z,17.70999908
2022-09-12T08:24:45.558Z,17.71999931
2022-09-12T08:25:41.384Z,17.75
2022-09-12T08:26:41.977Z,17.76000023
2022-09-12T08:27:38.942Z,17.77000046
2022-09-12T08:28:38.649Z,17.79999924
2022-09-12T08:29:35.728Z,17.82999992
2022-09-12T08:30:35.739Z,17.86000061
2022-09-12T08:31:31.892Z,17.88999939
2022-09-12T08:33:33.425Z,17.93000031
2022-09-12T08:34:29.953Z,17.96999931
2022-09-12T08:35:27.171Z,18.02000046
2022-09-12T08:36:27.150Z,18.04000092
2022-09-12T08:37:24.120Z,18.06999969
2022-09-12T08:38:27.076Z,18.11000061
2022-09-12T08:39:20.606Z,18.13999939
2022-09-12T08:40:21.679Z,18.15999985
2022-09-12T08:41:18.273Z,18.19000053
2022-09-12T08:42:19.193Z,18.19000053
2022-09-12T08:44:18.733Z,18.20999908
2022-09-12T08:45:12.899Z,18.22999954
2022-09-12T08:46:13.415Z,18.23999977
2022-09-12T08:47:09.378Z,18.23999977
2022-09-12T08:48:10.213Z,18.25
2022-09-12T08:49:05.999Z,18.26000023
2022-09-12T08:50:06.786Z,18.29000092
2022-09-12T08:51:03.218Z,18.29999924
2022-09-12T08:52:04.424Z,18.31999969
2022-09-12T08:54:04.354Z,18.34000015
2022-09-12T08:54:57.933Z,18.35000038
2022-09-12T08:55:58.234Z,18.37999916
2022-09-12T08:56:54.178Z,18.38999939
2022-09-12T08:58:26.286Z,18.45999908
2022-09-12T08:59:25.514Z,18.55999947
2022-09-12T09:00:27.177Z,18.62000084
2022-09-12T09:02:01.507Z,18.75
2022-09-12T09:04:15.282Z,18.98999977
2022-09-12T09:04:54.559Z,19.06999969
2022-09-12T09:05:52.288Z,19.10000038
2022-09-12T09:06:51.801Z,19.09000015
2022-09-12T09:07:46.481Z,19.04000092
2022-09-12T09:08:46.032Z,19.03000069
2022-09-12T09:09:40.592Z,19.03000069
2022-09-12T09:10:39.805Z,19.02000046
2022-09-12T09:11:34.560Z,19
2022-09-12T09:13:27.739Z,18.90999985
2022-09-12T09:14:28.908Z,18.87999916
2022-09-12T09:15:20.895Z,18.87000084
2022-09-12T09:16:22.868Z,18.85000038
2022-09-12T09:17:15.103Z,18.84000015
2022-09-12T09:18:11.669Z,18.82999992
2022-09-12T09:19:10.887Z,18.86000061
2022-09-12T09:20:05.162Z,18.86000061
2022-09-12T09:21:07.388Z,18.85000038
2022-09-12T09:21:59.230Z,18.87000084
2022-09-12T09:23:01.244Z,18.87000084
2022-09-12T09:23:53.211Z,18.89999962
2022-09-12T09:24:50.356Z,18.90999985
2022-09-12T09:25:49.539Z,18.93000031
2022-09-12T09:26:44.120Z,18.95000076
2022-09-12T09:27:45.924Z,18.94000053
2022-09-12T09:28:39.053Z,18.95999908
2022-09-12T09:29:40.383Z,18.98999977
2022-09-12T09:30:32.942Z,19.02000046
2022-09-12T09:31:32.290Z,19.06999969
2022-09-12T09:32:27.822Z,19.06999969
2022-09-12T09:34:22.777Z,19.13999939
2022-09-12T09:35:19.768Z,19.18000031
2022-09-12T09:36:19.301Z,19.20000076
2022-09-12T09:37:14.225Z,19.20999908
2022-09-12T09:40:02.193Z,19.34000015
2022-09-12T09:40:43.803Z,19.43000031
2022-09-12T09:41:44.209Z,19.46999931
2022-09-12T09:43:45.227Z,19.47999954
2022-09-12T09:44:42.289Z,19.5
2022-09-12T09:45:44.565Z,19.53000069
2022-09-12T09:45:47.934Z,19.53000069
2022-09-12T09:46:44.172Z,19.55999947
2022-09-12T09:47:42.229Z,19.54999924
2022-09-12T09:48:43.227Z,19.56999969
2022-09-12T09:49:42.370Z,19.57999992
2022-09-12T09:50:40.438Z,19.59000015
2022-09-12T09:51:43.805Z,19.60000038
2022-09-12T09:52:40.846Z,19.55999947
2022-09-12T09:53:41.661Z,19.57999992
2022-09-12T09:54:38.773Z,19.56999969
2022-09-12T09:55:39.396Z,19.62000084
2022-09-12T09:56:34.739Z,19.67000008
2022-09-12T09:57:38.897Z,19.70999908
2022-09-12T09:58:35.670Z,19.73999977
2022-09-12T09:59:32.046Z,19.76000023
2022-09-12T10:00:33.337Z,19.76000023
2022-09-12T10:01:29.763Z,19.77000046
2022-09-12T10:02:31.387Z,19.75
2022-09-12T10:04:33.046Z,19.72999954
2022-09-12T10:05:27.526Z,19.71999931
2022-09-12T10:06:28.772Z,19.72999954
2022-09-12T10:07:25.134Z,19.71999931
2022-09-12T10:09:23.714Z,19.73999977
2022-09-12T10:10:27.733Z,19.76000023
2022-09-12T10:11:22.883Z,19.80999947
2022-09-12T10:12:24.423Z,19.87000084
2022-09-12T10:13:21.005Z,19.89999962
2022-09-12T10:14:22.631Z,19.89999962
2022-09-12T10:15:19.215Z,19.90999985
2022-09-12T10:16:20.831Z,19.90999985
2022-09-12T10:17:18.001Z,19.92000008
2022-09-12T10:20:17.523Z,19.98999977
2022-09-12T10:20:20.327Z,19.98999977
2022-09-12T10:20:22.374Z,19.98999977
2022-09-12T10:20:36.740Z,20.05999947
2022-09-12T10:21:38.015Z,20.15999985
2022-09-12T10:22:31.949Z,20.18000031
2022-09-12T10:24:31.157Z,20.18000031
2022-09-12T10:25:26.785Z,20.18000031
2022-09-12T10:26:27.510Z,20.17000008
2022-09-12T10:27:22.802Z,20.15999985
2022-09-12T10:28:22.225Z,20.18000031
2022-09-12T10:29:17.552Z,20.18000031
2022-09-12T10:30:17.250Z,20.17000008
2022-09-12T10:31:12.472Z,20.15999985
2022-09-12T10:32:12.064Z,20.15999985
2022-09-12T10:34:07.173Z,20.14999962
2022-09-12T10:35:02.320Z,20.15999985
2022-09-12T10:36:01.459Z,20.17000008
2022-09-12T10:36:56.936Z,20.15999985
2022-09-12T10:38:54.260Z,20.15999985
2022-09-12T10:39:51.633Z,20.17000008
2022-09-12T10:40:47.601Z,20.17000008
2022-09-12T10:41:46.938Z,20.19000053
2022-09-12T10:42:41.734Z,20.19000053
2022-09-12T10:43:42.725Z,20.17000008
2022-09-12T10:44:38.030Z,20.18000031
2022-09-12T10:45:36.919Z,20.18000031
2022-09-12T10:46:39.243Z,20.17000008
2022-09-12T10:47:31.502Z,20.17000008
2022-09-12T10:49:28.865Z,20.20000076
2022-09-12T10:50:23.871Z,20.21999931
2022-09-12T10:51:26.143Z,20.21999931
2022-09-12T10:52:18.670Z,20.25
2022-09-12T10:53:18.168Z,20.25
2022-09-12T10:54:13.551Z,20.27000046
2022-09-12T10:55:12.758Z,20.29999924
2022-09-12T10:56:08.246Z,20.27000046
2022-09-12T10:57:10.005Z,20.29000092
2022-09-12T11:01:32.082Z,20.87999916
2022-09-12T11:01:38.444Z,20.94000053
2022-09-12T11:02:35.933Z,20.94000053
2022-09-12T11:04:30.751Z,20.88999939
2022-09-12T11:05:31.099Z,20.84000015
2022-09-12T11:06:26.488Z,20.80999947
2022-09-12T11:07:26.036Z,20.76000023
2022-09-12T11:08:20.980Z,20.72999954
2022-09-12T11:09:21.292Z,20.70000076
2022-09-12T11:10:16.650Z,20.69000053
2022-09-12T11:11:16.343Z,20.65999985
2022-09-12T11:12:12.656Z,20.64999962
2022-09-12T11:14:07.354Z,20.62000084
2022-09-12T11:15:08.976Z,20.60000038
2022-09-12T11:16:01.640Z,20.59000015
2022-09-12T11:17:00.488Z,20.60000038
2022-09-12T11:17:56.201Z,20.57999992
2022-09-12T11:18:56.282Z,20.57999992
2022-09-12T11:19:50.717Z,20.55999947
2022-09-12T11:20:50.126Z,20.55999947
2022-09-12T11:21:44.876Z,20.55999947
2022-09-12T11:23:39.674Z,20.54000092
2022-09-12T11:24:38.855Z,20.54000092
2022-09-12T11:25:33.297Z,20.53000069
2022-09-12T11:26:32.691Z,20.53000069
2022-09-12T11:27:28.166Z,20.53000069
2022-09-12T11:29:22.932Z,20.53000069
2022-09-12T11:30:24.936Z,20.54000092
2022-09-12T11:31:19.769Z,20.54999924
2022-09-12T11:32:22.334Z,20.54999924
2022-09-12T11:33:16.783Z,20.55999947
2022-09-12T11:34:11.289Z,20.57999992
2022-09-12T11:35:17.295Z,20.55999947
2022-09-12T11:36:11.413Z,20.57999992
2022-09-12T11:37:07.456Z,20.61000061
2022-09-12T11:37:10.992Z,20.61000061
2022-09-12T11:39:04.625Z,20.67000008
2022-09-12T11:39:56.732Z,20.68000031
2022-09-12T11:40:58.668Z,20.68000031
2022-09-12T11:41:51.535Z,20.68000031
2022-09-12T11:42:48.309Z,20.68000031
2022-09-12T11:43:48.084Z,20.67000008
2022-09-12T11:45:12.976Z,20.65999985
2022-09-12T11:45:53.378Z,20.68000031
2022-09-12T11:46:53.425Z,20.70999908
2022-09-12T11:48:49.059Z,20.70000076
2022-09-12T11:49:44.221Z,20.70000076
2022-09-12T11:50:45.107Z,20.69000053
2022-09-12T11:51:40.597Z,20.68000031
2022-09-12T11:52:43.216Z,20.65999985
2022-09-12T11:54:37.462Z,20.67000008
2022-09-12T11:55:37.268Z,20.67000008
2022-09-12T11:56:33.588Z,20.67000008